createdAt,value
2023-01-28T00:04:56.000Z,95.03
2023-01-28T00:09:57.000Z,94.88
2023-01-28T00:14:56.000Z,94.91
2023-01-28T00:19:58.000Z,95.20
2023-01-28T00:24:59.000Z,94.88
2023-01-28T00:30:13.000Z,95.23
2023-01-28T00:34:56.000Z,94.97
2023-01-28T00:39:57.000Z,95.08
2023-01-28T00:44:57.000Z,95.03
2023-01-28T00:49:57.000Z,95.06
2023-01-28T00:55:12.000Z,94.97
2023-01-28T01:20:04.000Z,95.29
2023-01-28T01:24:57.000Z,95.14
2023-01-28T01:29:57.000Z,95.31
2023-01-28T01:34:57.000Z,95.46
2023-01-28T01:39:57.000Z,95.40
2023-01-28T01:44:57.000Z,95.29
2023-01-28T01:49:57.000Z,95.43
2023-01-28T01:54:57.000Z,95.80
2023-01-28T01:59:59.000Z,95.29
2023-01-28T02:04:58.000Z,95.72
2023-01-28T02:09:57.000Z,96.20
2023-01-28T02:14:58.000Z,95.75
2023-01-28T02:19:57.000Z,95.86
2023-01-28T02:24:59.000Z,95.63
2023-01-28T02:30:02.000Z,95.91
2023-01-28T02:34:58.000Z,96.17
2023-01-28T02:40:12.000Z,95.86
2023-01-28T02:44:57.000Z,96.09
2023-01-28T02:49:58.000Z,96.20
2023-01-28T02:54:51.000Z,95.86
2023-01-28T03:00:00.000Z,95.80
2023-01-28T03:04:57.000Z,95.46
2023-01-28T03:09:59.000Z,95.72
2023-01-28T03:15:00.000Z,95.29
2023-01-28T03:19:58.000Z,95.20
2023-01-28T03:25:12.000Z,95.34
2023-01-28T03:29:57.000Z,95.40
2023-01-28T03:34:58.000Z,95.06
2023-01-28T03:40:12.000Z,95.26
2023-01-28T03:45:12.000Z,95.34
2023-01-28T03:49:57.000Z,94.88
2023-01-28T03:55:00.000Z,95.00
2023-01-28T04:00:13.000Z,95.10
2023-01-28T04:04:58.000Z,94.92
2023-01-28T04:09:58.000Z,94.95
2023-01-28T04:15:06.000Z,95.35
2023-01-28T04:19:57.000Z,95.31
2023-01-28T04:24:57.000Z,95.40
2023-01-28T04:29:59.000Z,96.06
2023-01-28T04:34:57.000Z,95.80
2023-01-28T04:39:57.000Z,95.91
2023-01-28T04:44:57.000Z,95.97
2023-01-28T04:49:57.000Z,96.09
2023-01-28T04:54:57.000Z,96.11
2023-01-28T04:59:57.000Z,96.20
2023-01-28T05:04:57.000Z,96.14
2023-01-28T05:09:57.000Z,95.89
2023-01-28T05:14:57.000Z,96.10
2023-01-28T05:19:58.000Z,96.01
2023-01-28T05:24:58.000Z,95.84
2023-01-28T05:30:01.000Z,95.61
2023-01-28T05:35:01.000Z,95.61
2023-01-28T05:40:03.000Z,95.92
2023-01-28T05:44:58.000Z,96.00
2023-01-28T05:50:00.000Z,96.10
2023-01-28T05:54:57.000Z,96.06
2023-01-28T06:00:03.000Z,96.11
2023-01-28T06:05:01.000Z,96.32
2023-01-28T06:09:57.000Z,96.06
2023-01-28T06:15:02.000Z,96.00
2023-01-28T06:20:00.000Z,96.11
2023-01-28T06:24:59.000Z,95.94
2023-01-28T06:29:58.000Z,96.17
2023-01-28T06:34:57.000Z,96.20
2023-01-28T06:40:00.000Z,96.17
2023-01-28T06:45:02.000Z,96.29
2023-01-28T06:49:58.000Z,96.11
2023-01-28T06:55:00.000Z,96.14
2023-01-28T07:00:00.000Z,95.88
2023-01-28T07:04:59.000Z,96.32
2023-01-28T07:10:00.000Z,96.00
2023-01-28T07:15:02.000Z,96.17
2023-01-28T07:19:59.000Z,96.37
2023-01-28T07:24:59.000Z,96.23
2023-01-28T07:29:58.000Z,96.37
2023-01-28T07:35:02.000Z,96.14
2023-01-28T07:40:02.000Z,96.17
2023-01-28T07:45:00.000Z,95.83
2023-01-28T07:49:58.000Z,95.97
2023-01-28T07:54:57.000Z,95.88
2023-01-28T08:00:00.000Z,95.88
2023-01-28T08:04:59.000Z,96.20
2023-01-28T08:10:00.000Z,96.05
2023-01-28T08:15:02.000Z,96.20
2023-01-28T08:19:57.000Z,95.97
2023-01-28T08:25:01.000Z,95.88
2023-01-28T08:29:57.000Z,96.16
2023-01-28T08:34:58.000Z,95.76
2023-01-28T08:39:57.000Z,95.99
2023-01-28T08:44:58.000Z,95.65
2023-01-28T08:50:00.000Z,95.59
2023-01-28T08:55:00.000Z,95.70
2023-01-28T08:59:58.000Z,95.43
2023-01-28T09:04:59.000Z,95.30
2023-01-28T09:10:00.000Z,95.63
2023-01-28T09:15:01.000Z,95.47
2023-01-28T09:20:00.000Z,95.52
2023-01-28T09:24:59.000Z,95.43
2023-01-28T09:29:59.000Z,95.35
2023-01-28T09:34:57.000Z,94.98
2023-01-28T09:39:57.000Z,94.94
2023-01-28T09:45:00.000Z,95.32
2023-01-28T09:49:57.000Z,95.17
2023-01-28T09:54:58.000Z,94.54
2023-01-28T09:59:59.000Z,93.97
2023-01-28T10:05:00.000Z,93.85
2023-01-28T10:09:58.000Z,93.91
2023-01-28T10:14:58.000Z,93.66
2023-01-28T10:19:58.000Z,93.31
2023-01-28T10:24:59.000Z,93.14
2023-01-28T10:29:57.000Z,93.25
2023-01-28T10:34:58.000Z,92.97
2023-01-28T10:40:03.000Z,92.63
2023-01-28T10:45:00.000Z,91.90
2023-01-28T10:49:57.000Z,92.24
2023-01-28T10:54:59.000Z,91.78
2023-01-28T11:00:03.000Z,91.35
2023-01-28T11:04:57.000Z,91.11
2023-01-28T11:10:00.000Z,90.53
2023-01-28T11:14:59.000Z,90.34
2023-01-28T11:19:58.000Z,89.96
2023-01-28T11:24:57.000Z,89.72
2023-01-28T11:29:58.000Z,90.08
2023-01-28T11:34:57.000Z,89.54
2023-01-28T11:39:57.000Z,89.86
2023-01-28T11:44:59.000Z,89.39
2023-01-28T11:49:57.000Z,89.28
2023-01-28T11:54:59.000Z,89.30
2023-01-28T12:00:00.000Z,88.61
2023-01-28T12:04:59.000Z,89.07
2023-01-28T12:09:57.000Z,88.76
2023-01-28T12:14:58.000Z,89.13
2023-01-28T12:19:57.000Z,89.25
2023-01-28T12:24:58.000Z,89.32
2023-01-28T12:29:58.000Z,88.86
2023-01-28T12:34:57.000Z,88.67
2023-01-28T12:39:57.000Z,87.34
2023-01-28T12:44:58.000Z,86.67
2023-01-28T12:49:57.000Z,86.20
2023-01-28T12:54:57.000Z,86.58
2023-01-28T12:59:58.000Z,85.60
2023-01-28T13:04:57.000Z,86.06
2023-01-28T13:09:57.000Z,86.12
2023-01-28T13:14:57.000Z,85.68
2023-01-28T13:19:57.000Z,86.02
2023-01-28T13:25:00.000Z,85.94
2023-01-28T13:29:57.000Z,86.12
2023-01-28T13:34:58.000Z,86.57
2023-01-28T13:39:58.000Z,86.02
2023-01-28T13:45:00.000Z,86.77
2023-01-28T13:50:00.000Z,86.83
2023-01-28T13:54:57.000Z,86.88
2023-01-28T13:59:58.000Z,86.90
2023-01-28T14:05:00.000Z,87.27
2023-01-28T14:09:57.000Z,87.92
2023-01-28T14:14:57.000Z,88.15
2023-01-28T14:19:57.000Z,87.40
2023-01-28T14:24:58.000Z,88.57
2023-01-28T14:29:57.000Z,87.89
2023-01-28T14:34:58.000Z,88.02
2023-01-28T14:39:58.000Z,88.31
2023-01-28T14:44:59.000Z,88.60
2023-01-28T14:49:59.000Z,88.86
2023-01-28T14:55:01.000Z,88.89
2023-01-28T14:59:59.000Z,88.77
2023-01-28T15:05:00.000Z,88.80
2023-01-28T15:10:00.000Z,88.96
2023-01-28T15:14:57.000Z,89.38
2023-01-28T15:19:58.000Z,89.21
2023-01-28T15:24:57.000Z,89.09
2023-01-28T15:29:59.000Z,89.18
2023-01-28T15:34:58.000Z,89.10
2023-01-28T15:39:58.000Z,88.87
2023-01-28T15:44:59.000Z,88.92
2023-01-28T15:50:00.000Z,89.13
2023-01-28T15:55:00.000Z,89.28
2023-01-28T15:59:58.000Z,88.92
2023-01-28T16:04:59.000Z,87.90
2023-01-28T16:09:59.000Z,87.80
2023-01-28T16:14:59.000Z,88.09
2023-01-28T16:19:59.000Z,87.70
2023-01-28T16:24:58.000Z,88.14
2023-01-28T16:29:59.000Z,88.84
2023-01-28T16:34:58.000Z,88.41
2023-01-28T16:39:57.000Z,88.47
2023-01-28T16:44:58.000Z,89.76
2023-01-28T16:49:57.000Z,89.04
2023-01-28T16:54:58.000Z,89.13
2023-01-28T16:59:57.000Z,89.47
2023-01-28T17:04:59.000Z,90.11
2023-01-28T17:09:58.000Z,89.93
2023-01-28T17:14:58.000Z,89.59
2023-01-28T17:19:57.000Z,88.76
2023-01-28T17:24:59.000Z,89.44
2023-01-28T17:29:57.000Z,89.04
2023-01-28T17:34:59.000Z,89.76
2023-01-28T17:39:59.000Z,89.72
2023-01-28T17:44:58.000Z,90.11
2023-01-28T17:50:00.000Z,89.54
2023-01-28T17:54:57.000Z,89.25
2023-01-28T17:59:59.000Z,89.57
2023-01-28T18:05:00.000Z,89.96
2023-01-28T18:10:00.000Z,89.34
2023-01-28T18:14:58.000Z,89.89
2023-01-28T18:19:59.000Z,89.23
2023-01-28T18:24:57.000Z,89.17
2023-01-28T18:30:00.000Z,88.77
2023-01-28T18:35:00.000Z,88.94
2023-01-28T18:39:58.000Z,88.50
2023-01-28T18:44:57.000Z,89.00
2023-01-28T18:49:59.000Z,88.47
2023-01-28T18:54:59.000Z,88.94
2023-01-28T18:59:59.000Z,88.68
2023-01-28T19:05:00.000Z,88.66
2023-01-28T19:10:00.000Z,89.20
2023-01-28T19:15:00.000Z,88.68
2023-01-28T19:19:58.000Z,88.89
2023-01-28T19:24:59.000Z,89.09
2023-01-28T19:30:01.000Z,89.86
2023-01-28T19:34:59.000Z,88.83
2023-01-28T19:39:57.000Z,89.53
2023-01-28T19:45:00.000Z,89.21
2023-01-28T19:50:00.000Z,89.12
2023-01-28T19:54:57.000Z,88.73
2023-01-28T20:00:01.000Z,88.60
2023-01-28T20:04:57.000Z,88.86
2023-01-28T20:09:59.000Z,89.37
2023-01-28T20:15:00.000Z,89.11
2023-01-28T20:19:58.000Z,88.95
2023-01-28T20:25:00.000Z,89.52
2023-01-28T20:30:00.000Z,89.70
2023-01-28T20:34:58.000Z,89.47
2023-01-28T20:39:58.000Z,89.49
2023-01-28T20:45:00.000Z,90.01
2023-01-28T20:50:01.000Z,89.92
2023-01-28T20:54:59.000Z,90.16
2023-01-28T20:59:59.000Z,90.76
2023-01-28T21:04:58.000Z,90.79
2023-01-28T21:09:59.000Z,90.79
2023-01-28T21:14:58.000Z,91.24
2023-01-28T21:20:00.000Z,91.19
2023-01-28T21:24:58.000Z,91.58
2023-01-28T21:29:58.000Z,91.60
2023-01-28T21:34:59.000Z,91.89
2023-01-28T21:40:00.000Z,92.24
2023-01-28T21:44:58.000Z,92.81
2023-01-28T21:49:59.000Z,93.04
2023-01-28T21:54:58.000Z,93.06
2023-01-28T22:00:00.000Z,92.83
2023-01-28T22:04:58.000Z,93.52
2023-01-28T22:09:58.000Z,93.62
2023-01-28T22:14:59.000Z,93.59
2023-01-28T22:20:01.000Z,93.78
2023-01-28T22:24:59.000Z,93.96
2023-01-28T22:29:58.000Z,93.78
2023-01-28T22:35:00.000Z,93.84
2023-01-28T22:40:01.000Z,93.86
2023-01-28T22:45:01.000Z,94.28
2023-01-28T22:50:00.000Z,94.00
2023-01-28T22:54:59.000Z,93.77
2023-01-28T22:59:58.000Z,93.59
2023-01-28T23:04:58.000Z,93.57
2023-01-28T23:10:00.000Z,93.80
2023-01-28T23:15:00.000Z,93.94
2023-01-28T23:20:00.000Z,94.08
2023-01-28T23:24:58.000Z,94.19
2023-01-28T23:29:58.000Z,94.14
2023-01-28T23:34:58.000Z,93.70
2023-01-28T23:39:58.000Z,93.50
2023-01-28T23:44:59.000Z,93.10
2023-01-28T23:49:58.000Z,93.50
2023-01-28T23:55:00.000Z,93.31
